Time;durP1;ratioP1;P1;durP2;ratioP2;P2;SDS_P1;SDS_P2;PMS_P1;PMS_P2;Temp;Humidity;BMP_temperature;BMP_pressure;BME280_temperature;BME280_humidity;BME280_pressure;Samples;Min_cycle;Max_cycle;Signal;HPM_P1;HPM_P2
2023/04/27 00:02:05;;;;;;;;;;;;;;;9.13;100.00;99048.75;5051053;28;850;-54
2023/04/27 00:04:32;;;;;;;;;;;;;;;9.07;100.00;99076.00;5050934;28;923;-54
2023/04/27 00:06:59;;;;;;;;;;;;;;;9.06;100.00;99073.66;5051038;28;874;-52
2023/04/27 00:09:25;;;;;;;;;;;;;;;9.05;100.00;99072.88;5051351;28;1881;-51
2023/04/27 00:11:51;;;;;;;;;;;;;;;9.05;100.00;99081.16;5050556;28;1366;-56
2023/04/27 00:14:19;;;;;;;;;;;;;;;9.01;100.00;99088.66;5050923;28;842;-57
2023/04/27 00:16:46;;;;;;;;;;;;;;;9.00;100.00;99078.81;5050851;28;862;-57
2023/04/27 00:19:14;;;;;;;;;;;;;;;8.98;100.00;99079.25;5050870;28;795;-57
2023/04/27 00:21:40;;;;;;;;;;;;;;;8.92;100.00;99077.34;5050842;28;807;-55
2023/04/27 00:24:07;;;;;;;;;;;;;;;8.85;100.00;99072.66;5050794;28;877;-56
2023/04/27 00:26:34;;;;;;;;;;;;;;;8.71;100.00;99073.59;5033003;28;902;-54
2023/04/27 00:29:01;;;;;;;;;;;;;;;8.60;100.00;99072.91;5049545;28;1979;-56
2023/04/27 00:31:28;;;;;;;;;;;;;;;8.38;100.00;99073.06;5052840;28;830;-53
2023/04/27 00:33:54;;;;;;;;;;;;;;;8.23;100.00;99054.28;5054358;28;830;-56
2023/04/27 00:36:21;;;;;;;;;;;;;;;8.14;100.00;99074.00;5036462;28;1818;-56
2023/04/27 00:38:47;;;;;;;;;;;;;;;8.19;100.00;99059.81;5054221;28;860;-52
2023/04/27 00:41:14;;;;;;;;;;;;;;;8.23;100.00;99052.31;5054320;28;854;-55
2023/04/27 00:43:43;;;;;;;;;;;;;;;8.27;100.00;99069.59;5054457;28;834;-50
2023/04/27 00:46:13;;;;;;;;;;;;;;;8.28;100.00;99070.34;5054112;28;875;-54
2023/04/27 00:48:40;;;;;;;;;;;;;;;8.31;100.00;99075.84;5053969;28;1890;-55
2023/04/27 00:51:07;;;;;;;;;;;;;;;8.31;100.00;99075.84;5054009;28;811;-51
2023/04/27 00:53:35;;;;;;;;;;;;;;;8.26;100.00;99081.78;5053811;28;870;-57
2023/04/27 00:56:02;;;;;;;;;;;;;;;8.26;100.00;99075.50;5053953;28;893;-52
2023/04/27 00:58:29;;;;;;;;;;;;;;;8.21;100.00;99079.47;5052647;28;645;-52
2023/04/27 01:00:56;;;;;;;;;;;;;;;8.14;100.00;99093.28;5053766;28;876;-57
2023/04/27 01:03:22;;;;;;;;;;;;;;;8.15;100.00;99084.63;5053940;28;807;-55
2023/04/27 01:05:49;;;;;;;;;;;;;;;8.16;100.00;99066.13;5053740;28;790;-54
2023/04/27 01:08:15;;;;;;;;;;;;;;;8.12;100.00;99092.91;5053743;28;1894;-54
2023/04/27 01:10:42;;;;;;;;;;;;;;;8.01;100.00;99105.94;5053700;28;837;-58
2023/04/27 01:13:09;;;;;;;;;;;;;;;7.96;100.00;99099.69;5053254;28;1226;-56
2023/04/27 01:15:35;;;;;;;;;;;;;;;7.90;100.00;99103.25;5053593;28;842;-55
2023/04/27 01:18:03;;;;;;;;;;;;;;;7.93;100.00;99141.75;5053615;28;893;-50
2023/04/27 01:20:30;;;;;;;;;;;;;;;7.93;100.00;99132.72;5053669;28;910;-54
2023/04/27 01:22:58;;;;;;;;;;;;;;;7.99;100.00;99125.59;5053308;28;862;-58
2023/04/27 01:25:24;;;;;;;;;;;;;;;8.07;100.00;99142.88;5053326;28;938;-59
2023/04/27 01:27:52;;;;;;;;;;;;;;;8.11;100.00;99127.13;5053307;28;1914;-58
2023/04/27 01:30:19;;;;;;;;;;;;;;;8.08;100.00;99164.47;5053166;28;886;-58
2023/04/27 01:32:45;;;;;;;;;;;;;;;8.00;100.00;99149.22;5053239;28;831;-53
2023/04/27 01:35:12;;;;;;;;;;;;;;;7.98;100.00;99152.34;5053421;28;830;-54
2023/04/27 01:37:39;;;;;;;;;;;;;;;7.96;100.00;99146.47;5053132;28;842;-50
2023/04/27 01:40:06;;;;;;;;;;;;;;;8.01;100.00;99158.25;5053013;28;981;-57
2023/04/27 01:42:33;;;;;;;;;;;;;;;7.98;100.00;99157.84;5051771;28;934;-51
2023/04/27 01:44:59;;;;;;;;;;;;;;;7.95;100.00;99149.59;5053116;28;838;-55
2023/04/27 01:47:26;;;;;;;;;;;;;;;8.02;100.00;99154.28;5052861;28;1886;-50
2023/04/27 01:49:53;;;;;;;;;;;;;;;8.01;100.00;99149.97;5053235;28;893;-54
2023/04/27 01:52:20;;;;;;;;;;;;;;;8.01;100.00;99161.75;5052649;28;950;-52
2023/04/27 01:54:46;;;;;;;;;;;;;;;8.02;100.00;99166.06;5052927;28;811;-53
2023/04/27 01:57:15;;;;;;;;;;;;;;;8.03;100.00;99167.66;5052713;28;803;-52
2023/04/27 01:59:41;;;;;;;;;;;;;;;8.06;100.00;99177.06;5052661;28;945;-53
2023/04/27 02:02:08;;;;;;;;;;;;;;;8.08;100.00;99163.69;5052619;28;855;-53
2023/04/27 02:04:35;;;;;;;;;;;;;;;8.11;100.00;99163.69;5052671;28;898;-51
2023/04/27 02:07:02;;;;;;;;;;;;;;;8.04;100.00;99163.69;5052634;28;870;-50
2023/04/27 02:09:29;;;;;;;;;;;;;;;8.10;100.00;99151.09;5052836;28;1890;-56
2023/04/27 02:11:55;;;;;;;;;;;;;;;8.13;100.00;99152.28;5052410;28;1238;-56
2023/04/27 02:14:22;;;;;;;;;;;;;;;8.13;100.00;99158.56;5052682;28;838;-51
2023/04/27 02:16:49;;;;;;;;;;;;;;;8.18;100.00;99129.81;5052640;28;867;-56
2023/04/27 02:19:16;;;;;;;;;;;;;;;8.16;100.00;99137.69;5052287;28;973;-55
2023/04/27 02:21:43;;;;;;;;;;;;;;;8.14;100.00;99148.34;5052057;28;923;-54
2023/04/27 02:24:09;;;;;;;;;;;;;;;8.14;100.00;99159.34;5052224;28;909;-54
2023/04/27 02:26:36;;;;;;;;;;;;;;;8.15;100.00;99136.13;5052210;28;846;-54
2023/04/27 02:29:02;;;;;;;;;;;;;;;8.11;100.00;99155.44;5052096;28;1938;-52
2023/04/27 02:31:29;;;;;;;;;;;;;;;8.21;100.00;99144.75;5052159;28;858;-57
2023/04/27 02:33:56;;;;;;;;;;;;;;;8.18;100.00;99162.84;5052017;28;965;-53
2023/04/27 02:36:22;;;;;;;;;;;;;;;8.16;100.00;99156.97;5051980;28;953;-57
2023/04/27 02:38:49;;;;;;;;;;;;;;;8.12;100.00;99158.97;5052228;28;881;-58
2023/04/27 02:41:16;;;;;;;;;;;;;;;8.09;100.00;99170.78;5052204;28;810;-53
2023/04/27 02:43:45;;;;;;;;;;;;;;;8.05;100.00;99176.28;5051997;28;897;-54
2023/04/27 02:46:12;;;;;;;;;;;;;;;8.05;100.00;99183.78;5051717;28;945;-55
2023/04/27 02:48:39;;;;;;;;;;;;;;;8.04;100.00;99180.22;5051779;28;1906;-55
2023/04/27 02:51:05;;;;;;;;;;;;;;;8.06;100.00;99161.34;5051817;28;822;-55
2023/04/27 02:53:32;;;;;;;;;;;;;;;8.05;100.00;99168.03;5033395;28;1508;-56
2023/04/27 02:55:59;;;;;;;;;;;;;;;8.03;100.00;99167.66;5051790;28;1181;-53
2023/04/27 02:58:24;;;;;;;;;;;;;;;8.06;100.00;99157.81;5051660;28;1177;-57
2023/04/27 03:00:55;;;;;;;;;;;;;;;8.04;100.00;99182.19;5051622;28;1252;-54
2023/04/27 03:03:21;;;;;;;;;;;;;;;7.99;100.00;99227.44;5051545;28;834;-56
2023/04/27 03:05:48;;;;;;;;;;;;;;;8.01;100.00;99161.75;5051546;28;913;-55
2023/04/27 03:08:15;;;;;;;;;;;;;;;7.99;100.00;99177.91;5051386;28;1890;-57
2023/04/27 03:10:41;;;;;;;;;;;;;;;7.95;100.00;99186.16;5051526;28;913;-54
2023/04/27 03:13:07;;;;;;;;;;;;;;;7.91;100.00;99184.59;5051317;28;1282;-56
2023/04/27 03:15:34;;;;;;;;;;;;;;;7.91;100.00;99193.63;5051478;28;833;-54
2023/04/27 03:18:01;;;;;;;;;;;;;;;7.87;100.00;99222.34;5051372;28;878;-55
2023/04/27 03:20:28;;;;;;;;;;;;;;;7.85;100.00;99233.78;5051596;28;854;-50
2023/04/27 03:22:54;;;;;;;;;;;;;;;7.83;100.00;99246.34;5051343;28;822;-55
2023/04/27 03:25:21;;;;;;;;;;;;;;;7.79;100.00;99246.38;5033500;28;1614;-57
2023/04/27 03:27:47;;;;;;;;;;;;;;;7.80;100.00;99247.16;5051362;28;1914;-55
2023/04/27 03:30:14;;;;;;;;;;;;;;;7.80;100.00;99247.94;5051350;28;865;-56
2023/04/27 03:32:41;;;;;;;;;;;;;;;7.77;100.00;99257.75;5051260;28;880;-51
2023/04/27 03:35:09;;;;;;;;;;;;;;;7.81;100.00;99252.25;5051203;28;1131;-54
2023/04/27 03:37:35;;;;;;;;;;;;;;;7.82;100.00;99237.31;5051256;28;819;-58
2023/04/27 03:40:02;;;;;;;;;;;;;;;7.82;100.00;99253.03;5051154;28;1022;-56
2023/04/27 03:42:30;;;;;;;;;;;;;;;7.78;100.00;99240.06;5051145;28;992;-53
2023/04/27 03:44:57;;;;;;;;;;;;;;;7.78;100.00;99242.03;5051255;28;882;-53
2023/04/27 03:47:23;;;;;;;;;;;;;;;7.78;100.00;99236.53;5051128;28;1914;-54
2023/04/27 03:49:50;;;;;;;;;;;;;;;7.78;100.00;99242.81;5051246;28;814;-54
2023/04/27 03:52:17;;;;;;;;;;;;;;;7.74;100.00;99244.00;5051057;28;885;-52
2023/04/27 03:54:44;;;;;;;;;;;;;;;7.75;100.00;99267.59;5051169;28;870;-57
2023/04/27 03:57:11;;;;;;;;;;;;;;;7.74;100.00;99255.00;5050927;28;926;-57
2023/04/27 03:59:37;;;;;;;;;;;;;;;7.71;100.00;99269.56;5051129;28;822;-55
2023/04/27 04:02:05;;;;;;;;;;;;;;;7.71;100.00;99281.34;5051137;28;863;-56
2023/04/27 04:04:31;;;;;;;;;;;;;;;7.73;100.00;99286.47;5051065;28;838;-56
2023/04/27 04:10:01;;;;;;;;;;;;;;;7.77;100.00;99298.25;5054844;28;692;-50
2023/04/27 04:12:28;;;;;;;;;;;;;;;7.76;100.00;99289.19;5054531;28;1289;-56
2023/04/27 04:27:31;;;;;;;;;;;;;;;7.88;100.00;99306.47;5054690;28;1902;-57
2023/04/27 04:29:59;;;;;;;;;;;;;;;7.94;100.00;99313.16;5054439;28;815;-53
2023/04/27 04:32:30;;;;;;;;;;;;;;;7.91;100.00;99313.94;5052853;28;1794;-58
2023/04/27 04:34:57;;;;;;;;;;;;;;;7.95;100.00;99318.25;5054552;28;902;-58
2023/04/27 04:37:24;;;;;;;;;;;;;;;7.90;100.00;99332.41;5054546;28;819;-50
2023/04/27 04:39:51;;;;;;;;;;;;;;;7.91;100.00;99313.94;5054355;28;875;-51
2023/04/27 04:42:18;;;;;;;;;;;;;;;7.95;100.00;99326.50;5054727;28;846;-50
2023/04/27 04:44:44;;;;;;;;;;;;;;;7.94;100.00;99319.44;5054707;28;854;-55
2023/04/27 04:47:11;;;;;;;;;;;;;;;7.98;100.00;99320.22;5054189;28;914;-55
2023/04/27 04:49:37;;;;;;;;;;;;;;;8.00;100.00;99332.78;5054250;28;1968;-50
2023/04/27 04:52:04;;;;;;;;;;;;;;;7.96;100.00;99319.84;5054041;28;846;-53
2023/04/27 04:54:30;;;;;;;;;;;;;;;8.04;100.00;99358.34;5054014;28;822;-54
2023/04/27 04:56:58;;;;;;;;;;;;;;;8.01;100.00;99348.13;5054142;28;810;-54
2023/04/27 04:59:24;;;;;;;;;;;;;;;8.04;100.00;99328.84;5053885;28;921;-52
2023/04/27 05:01:54;;;;;;;;;;;;;;;8.06;100.00;99325.69;5053827;28;886;-56
2023/04/27 05:04:21;;;;;;;;;;;;;;;8.06;100.00;99331.19;5053934;28;835;-56
2023/04/27 05:06:48;;;;;;;;;;;;;;;8.08;100.00;99335.13;5054003;28;826;-56
2023/04/27 05:09:14;;;;;;;;;;;;;;;8.13;100.00;99329.22;5036343;28;1885;-57
2023/04/27 05:11:41;;;;;;;;;;;;;;;8.16;100.00;99330.41;5053802;28;1395;-55
2023/04/27 05:14:07;;;;;;;;;;;;;;;8.21;100.00;99342.97;5053912;28;842;-50
2023/04/27 05:16:34;;;;;;;;;;;;;;;8.24;100.00;99331.94;5053344;28;822;-57
2023/04/27 05:19:00;;;;;;;;;;;;;;;8.36;100.00;99336.22;5053301;28;922;-50
2023/04/27 05:21:27;;;;;;;;;;;;;;;8.36;100.00;99341.72;5053503;28;552;-49
2023/04/27 05:23:53;;;;;;;;;;;;;;;8.39;100.00;99358.25;5053313;28;862;-54
2023/04/27 05:26:20;;;;;;;;;;;;;;;8.39;100.00;99349.22;5053426;28;815;-51
2023/04/27 05:28:48;;;;;;;;;;;;;;;8.43;100.00;99351.97;5053267;28;1914;-52
2023/04/27 05:31:14;;;;;;;;;;;;;;;8.39;100.00;99366.50;5053179;28;949;-54
2023/04/27 05:33:42;;;;;;;;;;;;;;;8.36;100.00;99359.06;5053237;28;811;-53
2023/04/27 05:36:08;;;;;;;;;;;;;;;8.34;100.00;99366.94;5053109;28;854;-54
2023/04/27 05:38:38;;;;;;;;;;;;;;;8.35;100.00;99376.75;5053204;28;1049;-51
2023/04/27 05:41:05;;;;;;;;;;;;;;;8.40;100.00;99356.28;5053281;28;878;-56
2023/04/27 05:43:33;;;;;;;;;;;;;;;8.42;100.00;99372.44;5053785;28;787;-50
2023/04/27 05:46:00;;;;;;;;;;;;;;;8.47;100.00;99378.34;5053144;28;953;-53
2023/04/27 05:48:26;;;;;;;;;;;;;;;8.50;100.00;99374.00;5053326;28;1886;-50
2023/04/27 05:51:00;;;;;;;;;;;;;;;8.53;100.00;99365.69;5053029;28;869;-50
2023/04/27 05:53:27;;;;;;;;;;;;;;;8.65;100.00;99366.47;5053119;28;862;-51
2023/04/27 05:55:55;;;;;;;;;;;;;;;8.71;100.00;99367.63;5052871;28;842;-55
2023/04/27 05:58:22;;;;;;;;;;;;;;;8.73;100.00;99374.28;5052772;28;866;-50
2023/04/27 06:00:49;;;;;;;;;;;;;;;8.79;100.00;99369.94;5052656;28;968;-52
2023/04/27 06:03:16;;;;;;;;;;;;;;;8.89;100.00;99375.78;5052673;28;846;-52
2023/04/27 06:05:42;;;;;;;;;;;;;;;9.00;100.00;99365.50;5034740;28;1220;-54
2023/04/27 06:08:08;;;;;;;;;;;;;;;9.15;100.00;99372.50;5052536;28;1926;-54
2023/04/27 06:10:35;;;;;;;;;;;;;;;9.37;100.00;99369.63;5034869;28;1163;-51
2023/04/27 06:13:02;;;;;;;;;;;;;;;9.38;100.00;99368.41;5052314;28;1255;-50
2023/04/27 06:15:29;;;;;;;;;;;;;;;9.40;100.00;99379.81;5052432;28;886;-49
2023/04/27 06:17:55;;;;;;;;;;;;;;;9.35;100.00;99380.25;5052451;28;959;-49
2023/04/27 06:20:22;;;;;;;;;;;;;;;9.32;100.00;99375.53;5052689;28;886;-49
2023/04/27 06:22:48;;;;;;;;;;;;;;;9.44;100.00;99368.78;5052294;28;862;-53
2023/04/27 06:25:15;;;;;;;;;;;;;;;9.42;100.00;99371.94;5052305;28;827;-51
2023/04/27 06:27:41;;;;;;;;;;;;;;;9.56;100.00;99391.16;5051883;28;1977;-49
2023/04/27 06:30:08;;;;;;;;;;;;;;;9.55;100.00;99375.75;5051699;28;855;-50
2023/04/27 06:32:35;;;;;;;;;;;;;;;9.49;100.00;99371.09;5052104;28;830;-51
2023/04/27 06:35:02;;;;;;;;;;;;;;;9.54;100.00;99390.00;5052052;28;1725;-49
2023/04/27 06:37:28;;;;;;;;;;;;;;;9.56;100.00;99391.16;5052095;28;815;-52
2023/04/27 06:39:55;;;;;;;;;;;;;;;9.67;100.00;99387.53;5052006;28;888;-49
2023/04/27 06:42:21;;;;;;;;;;;;;;;9.70;100.00;99387.47;5052054;28;913;-49
2023/04/27 06:44:48;;;;;;;;;;;;;;;9.84;100.00;99394.88;5052347;28;929;-49
2023/04/27 06:47:15;;;;;;;;;;;;;;;9.90;100.00;99390.47;5052283;28;822;-53
2023/04/27 06:49:42;;;;;;;;;;;;;;;10.08;100.00;99389.53;5052344;28;1874;-49
2023/04/27 06:52:08;;;;;;;;;;;;;;;10.08;100.00;99403.34;5052292;28;783;-52
2023/04/27 06:54:35;;;;;;;;;;;;;;;10.04;100.00;99397.06;5051833;28;815;-56
2023/04/27 06:57:02;;;;;;;;;;;;;;;10.20;100.00;99402.84;5051778;28;890;-52
2023/04/27 06:59:28;;;;;;;;;;;;;;;10.45;100.00;99405.34;5051987;28;814;-53
2023/04/27 07:01:54;;;;;;;;;;;;;;;10.36;100.00;99414.13;5051755;28;1126;-51
2023/04/27 07:04:20;;;;;;;;;;;;;;;10.35;99.91;99414.56;5051617;28;897;-48
2023/04/27 07:06:47;;;;;;;;;;;;;;;10.46;100.00;99417.19;5051562;28;885;-52
2023/04/27 07:09:14;;;;;;;;;;;;;;;10.40;100.00;99428.69;5051890;28;1882;-50
2023/04/27 07:11:41;;;;;;;;;;;;;;;10.42;100.00;99440.13;5051307;28;1509;-51
2023/04/27 07:14:07;;;;;;;;;;;;;;;10.46;99.07;99439.31;5051490;28;826;-49
2023/04/27 07:16:35;;;;;;;;;;;;;;;10.37;96.32;99437.81;5051590;28;794;-52
2023/04/27 07:19:01;;;;;;;;;;;;;;;10.53;97.69;99450.28;5051293;28;953;-49
2023/04/27 07:21:28;;;;;;;;;;;;;;;10.75;96.99;99448.84;5051295;28;950;-53
2023/04/27 07:23:54;;;;;;;;;;;;;;;10.70;92.81;99462.34;5051465;28;850;-53
2023/04/27 07:26:23;;;;;;;;;;;;;;;10.89;95.46;99458.19;5051273;28;918;-50
2023/04/27 07:28:50;;;;;;;;;;;;;;;10.91;94.54;99461.31;5051201;28;1976;-55
2023/04/27 07:31:17;;;;;;;;;;;;;;;11.02;95.02;99468.28;5051278;28;858;-53
2023/04/27 07:33:45;;;;;;;;;;;;;;;11.17;93.44;99479.94;5051343;28;830;-48
2023/04/27 07:36:11;;;;;;;;;;;;;;;11.20;93.48;99483.84;5051270;28;1000;-51
2023/04/27 07:38:38;;;;;;;;;;;;;;;11.39;93.77;99474.94;5051285;28;807;-49
2023/04/27 07:41:05;;;;;;;;;;;;;;;11.77;94.98;99482.31;5054574;28;925;-50
2023/04/27 07:43:32;;;;;;;;;;;;;;;11.77;93.35;99485.84;5055205;28;879;-49
2023/04/27 07:45:59;;;;;;;;;;;;;;;11.57;91.66;99480.22;5055305;28;873;-52
2023/04/27 07:48:27;;;;;;;;;;;;;;;11.33;93.36;99476.59;5055315;28;1882;-50
2023/04/27 07:50:54;;;;;;;;;;;;;;;11.41;91.66;99494.69;5055115;28;935;-49
2023/04/27 07:53:20;;;;;;;;;;;;;;;11.42;91.56;99484.38;5055087;28;866;-51
2023/04/27 08:07:57;;;;;;;;;;;;;;;12.07;92.41;99486.22;5055119;28;1902;-49
2023/04/27 08:10:24;;;;;;;;;;;;;;;12.05;92.44;99487.44;5054858;28;830;-50
2023/04/27 08:12:51;;;;;;;;;;;;;;;12.12;92.42;99494.84;5054608;28;1280;-49
2023/04/27 08:15:17;;;;;;;;;;;;;;;11.96;90.95;99498.25;5054688;28;835;-49
2023/04/27 08:17:43;;;;;;;;;;;;;;;11.84;92.24;99498.81;5054561;28;1141;-51
2023/04/27 08:20:13;;;;;;;;;;;;;;;11.81;92.36;99489.34;5054539;28;965;-53
2023/04/27 08:22:40;;;;;;;;;;;;;;;11.72;92.07;99482.78;5054527;28;1175;-48
2023/04/27 08:25:07;;;;;;;;;;;;;;;11.92;91.76;99486.44;5054496;28;910;-50
2023/04/27 08:27:36;;;;;;;;;;;;;;;12.03;92.30;99486.28;5054435;28;1922;-48
2023/04/27 08:30:03;;;;;;;;;;;;;;;12.11;93.07;99473.88;5054471;28;1013;-48
2023/04/27 08:32:30;;;;;;;;;;;;;;;12.15;91.44;99474.59;5054463;28;965;-53
2023/04/27 08:34:57;;;;;;;;;;;;;;;12.09;91.94;99472.75;5054209;28;910;-48
2023/04/27 08:37:23;;;;;;;;;;;;;;;12.12;91.54;99466.34;5054547;28;802;-53
2023/04/27 08:39:50;;;;;;;;;;;;;;;12.21;93.17;99472.94;5054297;28;818;-48
2023/04/27 08:42:16;;;;;;;;;;;;;;;12.28;89.75;99462.94;5054245;28;814;-54
2023/04/27 08:44:43;;;;;;;;;;;;;;;12.24;90.40;99474.84;5054237;28;830;-49
2023/04/27 08:47:10;;;;;;;;;;;;;;;12.46;91.39;99477.28;5054065;28;850;-49
2023/04/27 08:49:37;;;;;;;;;;;;;;;12.56;89.34;99465.19;5053956;28;1943;-51
2023/04/27 08:52:10;;;;;;;;;;;;;;;12.40;85.36;99476.19;5053307;28;851;-52
2023/04/27 08:54:36;;;;;;;;;;;;;;;12.20;81.68;99463.03;5054042;28;819;-51
2023/04/27 08:57:08;;;;;;;;;;;;;;;12.25;85.73;99464.56;5053994;28;838;-54
2023/04/27 08:59:35;;;;;;;;;;;;;;;12.23;77.82;99470.53;5054033;28;822;-52
2023/04/27 09:02:02;;;;;;;;;;;;;;;12.23;75.40;99473.28;5054082;28;949;-56
2023/04/27 09:04:41;;;;;;;;;;;;;;;12.43;76.40;99469.78;5053858;28;787;-50
2023/04/27 09:07:14;;;;;;;;;;;;;;;12.50;75.73;99477.19;5053630;28;1048;-50
2023/04/27 09:09:41;;;;;;;;;;;;;;;12.44;73.75;99471.38;5053641;28;1940;-48
2023/04/27 09:12:20;;;;;;;;;;;;;;;12.43;73.60;99462.25;5053847;28;1499;-54
2023/04/27 09:14:59;;;;;;;;;;;;;;;12.48;76.22;99460.19;5053805;28;843;-50
2023/04/27 09:17:26;;;;;;;;;;;;;;;12.51;71.71;99442.72;5053496;28;925;-56
2023/04/27 09:20:14;;;;;;;;;;;;;;;12.68;73.45;99458.25;5053589;28;803;-51
2023/04/27 09:22:46;;;;;;;;;;;;;;;12.69;71.73;99453.47;5053418;28;851;-49
2023/04/27 09:25:26;;;;;;;;;;;;;;;12.81;72.31;99453.63;5053301;28;898;-50
2023/04/27 09:27:53;;;;;;;;;;;;;;;12.80;70.05;99440.97;5053611;28;1969;-53
2023/04/27 09:30:20;;;;;;;;;;;;;;;12.74;70.88;99456.53;5052506;28;818;-50
2023/04/27 09:32:56;;;;;;;;;;;;;;;12.55;69.38;99463.63;5053335;28;818;-53
2023/04/27 09:35:27;;;;;;;;;;;;;;;12.22;70.38;99455.09;5053255;28;838;-48
2023/04/27 09:37:54;;;;;;;;;;;;;;;12.12;70.96;99460.81;5053195;28;937;-55
2023/04/27 10:08:49;;;;;;;;;;;;;;;14.29;62.32;99482.50;5669556;22;1665;-65
2023/04/27 10:11:18;;;;;;;;;;;;;;;14.76;62.50;99480.53;5052619;28;946;-65
2023/04/27 10:13:54;;;;;;;;;;;;;;;14.99;61.66;99485.84;5052829;28;889;-65
2023/04/27 10:16:20;;;;;;;;;;;;;;;15.01;58.00;99479.84;5052433;28;824;-66
2023/04/27 10:18:56;;;;;;;;;;;;;;;15.70;60.37;99485.75;5052732;28;956;-66
2023/04/27 10:21:26;;;;;;;;;;;;;;;16.96;58.72;99481.59;5052437;28;897;-66
2023/04/27 10:24:05;;;;;;;;;;;;;;;18.23;55.72;99483.97;5109808;27;1340;-65
2023/04/27 10:26:32;;;;;;;;;;;;;;;18.39;51.90;99480.88;5109494;28;848;-64
2023/04/27 10:28:58;;;;;;;;;;;;;;;18.82;58.40;99481.88;5109643;28;801;-63
2023/04/27 10:31:28;;;;;;;;;;;;;;;19.81;53.80;99477.00;5109384;28;801;-63
2023/04/27 10:34:15;;;;;;;;;;;;;;;19.52;52.97;99465.09;5109348;28;809;-63
2023/04/27 10:36:42;;;;;;;;;;;;;;;18.84;53.87;99468.19;5109038;28;1366;-64
2023/04/27 10:39:15;;;;;;;;;;;;;;;18.77;54.23;99477.63;5109107;28;1019;-64
2023/04/27 10:41:55;;;;;;;;;;;;;;;18.06;51.86;99461.84;5109102;28;1909;-67
2023/04/27 10:44:31;;;;;;;;;;;;;;;18.08;54.48;99448.19;5109143;28;798;-68
2023/04/27 10:47:00;;;;;;;;;;;;;;;17.80;52.37;99463.31;5109029;28;873;-67
2023/04/27 10:49:28;;;;;;;;;;;;;;;16.74;52.16;99470.41;5109047;28;925;-71
2023/04/27 10:51:57;;;;;;;;;;;;;;;16.89;54.04;99477.06;5108958;28;849;-68
2023/04/27 10:54:28;;;;;;;;;;;;;;;17.30;52.58;99472.41;5108878;28;868;-66
2023/04/27 10:57:02;;;;;;;;;;;;;;;16.78;52.40;99471.06;5108983;28;853;-64
2023/04/27 10:59:30;;;;;;;;;;;;;;;16.40;53.63;99468.41;5108864;28;919;-68
2023/04/27 11:01:57;;;;;;;;;;;;;;;16.27;55.11;99472.00;5108722;28;1881;-68
2023/04/27 11:04:33;;;;;;;;;;;;;;;16.32;54.03;99477.03;5108781;28;822;-67
2023/04/27 11:07:03;;;;;;;;;;;;;;;16.28;54.42;99472.78;5108596;28;857;-68
2023/04/27 11:09:30;;;;;;;;;;;;;;;16.35;54.10;99469.00;5108790;28;881;-67
2023/04/27 11:11:56;;;;;;;;;;;;;;;16.29;54.33;99489.06;5108981;28;837;-66
2023/04/27 11:14:23;;;;;;;;;;;;;;;16.38;54.52;99477.22;5107588;28;1302;-66
2023/04/27 11:16:50;;;;;;;;;;;;;;;15.99;53.09;99490.44;5108827;28;849;-65
2023/04/27 11:19:16;;;;;;;;;;;;;;;15.46;54.00;99478.94;5109285;28;750;-67
2023/04/27 11:21:43;;;;;;;;;;;;;;;15.94;55.40;99493.81;5108034;28;1881;-66
2023/04/27 11:24:09;;;;;;;;;;;;;;;16.30;54.10;99490.63;5108384;28;817;-66
2023/04/27 11:26:36;;;;;;;;;;;;;;;16.45;55.74;99484.56;5108294;28;802;-68
2023/04/27 11:29:08;;;;;;;;;;;;;;;16.64;53.71;99479.94;5108231;28;924;-67
2023/04/27 11:31:40;;;;;;;;;;;;;;;16.65;52.58;99478.72;5108259;28;869;-68
2023/04/27 11:34:07;;;;;;;;;;;;;;;16.06;54.39;99484.63;5101681;28;762;-68
2023/04/27 11:36:34;;;;;;;;;;;;;;;15.79;55.14;99487.91;5094591;28;798;-73
2023/04/27 11:39:01;;;;;;;;;;;;;;;15.08;54.78;99496.31;5094605;28;884;-66
2023/04/27 11:41:36;;;;;;;;;;;;;;;14.68;56.20;99489.06;5094601;28;782;-68
2023/04/27 11:44:07;;;;;;;;;;;;;;;14.52;57.31;99499.41;5094393;28;791;-68
2023/04/27 11:46:35;;;;;;;;;;;;;;;14.52;58.69;99508.53;5094683;28;806;-66
2023/04/27 11:49:03;;;;;;;;;;;;;;;14.86;58.55;99508.06;5094859;28;858;-67
2023/04/27 11:51:31;;;;;;;;;;;;;;;15.92;58.78;99502.59;5094566;28;838;-67
2023/04/27 11:54:09;;;;;;;;;;;;;;;16.36;55.74;99502.00;5094149;28;814;-65
2023/04/27 11:56:36;;;;;;;;;;;;;;;16.53;54.50;99511.75;5094187;28;818;-66
2023/04/27 11:59:03;;;;;;;;;;;;;;;16.66;54.66;99519.31;5094113;28;865;-65
2023/04/27 12:01:31;;;;;;;;;;;;;;;17.26;54.66;99508.06;5094081;28;865;-66
2023/04/27 12:04:03;;;;;;;;;;;;;;;17.40;53.09;99492.00;5094032;28;1956;-72
2023/04/27 12:06:30;;;;;;;;;;;;;;;17.19;53.62;99507.53;5093848;28;805;-68
2023/04/27 12:15:01;;;;;;;;;;;;;;;17.06;52.87;99502.00;5093841;28;664;-67
2023/04/27 12:17:28;;;;;;;;;;;;;;;17.39;52.51;99515.56;5093748;28;810;-63
2023/04/27 12:19:55;;;;;;;;;;;;;;;18.12;51.26;99515.94;5093738;28;833;-67
2023/04/27 12:22:22;;;;;;;;;;;;;;;17.60;50.42;99505.59;5093375;28;1981;-68
2023/04/27 12:24:48;;;;;;;;;;;;;;;16.24;52.39;99520.31;5093701;28;892;-65
2023/04/27 12:27:15;;;;;;;;;;;;;;;15.48;54.69;99512.69;5093526;28;826;-67
2023/04/27 12:29:41;;;;;;;;;;;;;;;15.51;54.96;99523.72;5093579;28;892;-68
2023/04/27 12:32:07;;;;;;;;;;;;;;;15.46;56.55;99521.47;5093521;28;861;-67
2023/04/27 12:34:38;;;;;;;;;;;;;;;15.23;56.27;99516.97;5093840;28;778;-69
2023/04/27 12:37:05;;;;;;;;;;;;;;;15.06;57.26;99509.91;5093275;28;833;-68
2023/04/27 12:51:44;;;;;;;;;;;;;;;14.69;56.95;99542.69;5093371;28;609;-69
2023/04/27 12:54:11;;;;;;;;;;;;;;;15.02;57.34;99535.06;5093008;28;806;-67
2023/04/27 12:56:38;;;;;;;;;;;;;;;15.62;56.46;99537.34;5093062;28;814;-66
2023/04/27 12:59:08;;;;;;;;;;;;;;;15.62;57.25;99530.97;5093013;28;817;-69
2023/04/27 13:01:34;;;;;;;;;;;;;;;15.14;57.29;99549.47;5093149;28;838;-66
2023/04/27 13:04:02;;;;;;;;;;;;;;;14.99;58.33;99549.06;5092903;28;1874;-67
2023/04/27 13:06:30;;;;;;;;;;;;;;;14.85;58.03;99553.00;5091457;28;1214;-65
2023/04/27 13:08:57;;;;;;;;;;;;;;;14.90;58.00;99549.69;5092772;28;974;-67
2023/04/27 13:11:24;;;;;;;;;;;;;;;14.84;59.48;99546.66;5092724;28;810;-66
2023/04/27 13:13:51;;;;;;;;;;;;;;;14.55;59.34;99559.72;5092755;28;884;-67
2023/04/27 13:16:20;;;;;;;;;;;;;;;14.34;58.96;99561.81;5092578;28;846;-67
2023/04/27 13:18:48;;;;;;;;;;;;;;;14.56;59.54;99564.88;5091206;28;1377;-67
2023/04/27 13:21:15;;;;;;;;;;;;;;;14.92;59.89;99554.84;5092461;28;866;-68
2023/04/27 13:23:41;;;;;;;;;;;;;;;15.48;59.87;99546.09;5092157;28;1980;-68
2023/04/27 13:26:08;;;;;;;;;;;;;;;16.27;60.33;99546.53;5092547;28;873;-69
2023/04/27 13:28:35;;;;;;;;;;;;;;;16.91;58.49;99547.19;5091080;28;1589;-68
2023/04/27 13:31:02;;;;;;;;;;;;;;;17.07;54.64;99542.63;5092432;28;830;-69
2023/04/27 13:33:29;;;;;;;;;;;;;;;16.56;55.27;99538.00;5092463;28;818;-69
2023/04/27 13:38:58;;;;;;;;;;;;;;;17.91;51.71;99541.97;5092259;28;648;-68
2023/04/27 13:41:26;;;;;;;;;;;;;;;18.20;51.56;99541.59;5092121;28;857;-69
2023/04/27 13:56:18;;;;;;;;;;;;;;;16.15;52.82;99552.88;5092200;28;666;-75
2023/04/27 13:58:45;;;;;;;;;;;;;;;16.18;54.62;99546.44;5090464;28;1457;-68
2023/04/27 14:01:11;;;;;;;;;;;;;;;16.50;52.44;99553.75;5091942;28;810;-69
2023/04/27 14:03:38;;;;;;;;;;;;;;;16.56;53.28;99562.31;5091968;28;1902;-67
2023/04/27 14:06:06;;;;;;;;;;;;;;;16.94;53.66;99563.03;5091736;28;877;-67
2023/04/27 14:11:36;;;;;;;;;;;;;;;16.05;53.86;99560.38;5091817;28;672;-67
2023/04/27 14:14:03;;;;;;;;;;;;;;;15.38;54.94;99569.47;5091717;28;920;-67
2023/04/27 14:16:28;;;;;;;;;;;;;;;15.00;56.85;99556.19;5091743;28;826;-67
2023/04/27 14:18:55;;;;;;;;;;;;;;;14.84;56.17;99568.91;5091715;28;842;-67
2023/04/27 14:21:21;;;;;;;;;;;;;;;15.19;56.59;99562.84;5091586;28;896;-67
2023/04/27 14:23:48;;;;;;;;;;;;;;;15.52;55.57;99569.84;5091469;28;2009;-67
2023/04/27 14:26:15;;;;;;;;;;;;;;;15.37;57.06;99568.69;5091587;28;871;-66
2023/04/27 14:28:41;;;;;;;;;;;;;;;15.83;55.96;99565.78;5091621;28;861;-67
2023/04/27 14:31:08;;;;;;;;;;;;;;;15.30;57.21;99568.91;5091595;28;830;-67
2023/04/27 14:33:34;;;;;;;;;;;;;;;15.05;56.91;99553.66;5091458;28;823;-67
2023/04/27 14:36:01;;;;;;;;;;;;;;;15.00;56.42;99559.78;5091587;28;826;-67
2023/04/27 14:38:27;;;;;;;;;;;;;;;14.51;57.57;99565.38;5091890;28;845;-68
2023/04/27 14:40:55;;;;;;;;;;;;;;;14.22;59.62;99557.72;5091666;28;802;-69